createdAt,value
2019-03-15T00:01:10.664Z,22.17
2019-03-15T00:06:16.811Z,19.10
2019-03-15T00:11:22.840Z,19.27
2019-03-15T00:16:28.905Z,30.50
2019-03-15T00:21:34.992Z,29.92
2019-03-15T00:26:41.059Z,32.35
2019-03-15T00:31:47.325Z,26.70
2019-03-15T00:36:53.551Z,28.00
2019-03-15T00:41:59.809Z,20.82
2019-03-15T00:47:06.061Z,18.50
2019-03-15T00:52:12.441Z,19.77
2019-03-15T00:57:18.513Z,26.33
2019-03-15T01:02:25.053Z,27.02
2019-03-15T01:07:31.242Z,16.42
2019-03-15T01:12:37.592Z,21.48
2019-03-15T01:17:43.835Z,21.62
2019-03-15T01:22:50.083Z,25.08
2019-03-15T01:27:56.357Z,20.52
2019-03-15T01:33:02.620Z,22.55
2019-03-15T01:38:08.745Z,24.65
2019-03-15T01:43:15.095Z,24.52
2019-03-15T01:48:21.335Z,26.77
2019-03-15T01:53:27.291Z,23.27
2019-03-15T01:58:33.444Z,25.92
2019-03-15T02:03:39.799Z,26.25
2019-03-15T02:08:45.828Z,26.40
2019-03-15T02:13:52.079Z,20.37
2019-03-15T02:18:58.387Z,29.25
2019-03-15T02:24:04.571Z,25.43
2019-03-15T02:29:10.910Z,24.70
2019-03-15T02:34:16.913Z,38.13
2019-03-15T02:39:23.227Z,31.52
2019-03-15T02:44:29.401Z,23.42
2019-03-15T02:49:35.445Z,26.45
2019-03-15T02:54:41.508Z,19.17
2019-03-15T02:59:47.705Z,17.70
2019-03-15T03:04:53.824Z,19.55
2019-03-15T03:09:59.857Z,24.02
2019-03-15T03:15:06.304Z,19.62
2019-03-15T03:20:12.568Z,23.50
2019-03-15T03:25:18.794Z,19.55
2019-03-15T03:30:24.990Z,23.50
2019-03-15T03:35:31.071Z,26.10
2019-03-15T03:40:37.605Z,27.30
2019-03-15T03:45:43.739Z,30.02
2019-03-15T03:50:50.208Z,21.57
2019-03-15T03:55:56.725Z,25.27
2019-03-15T04:01:03.388Z,28.70
2019-03-15T04:06:09.470Z,25.80
2019-03-15T04:11:15.673Z,32.53
2019-03-15T04:16:21.710Z,27.93
2019-03-15T04:21:28.048Z,23.75
2019-03-15T04:26:34.198Z,25.57
2019-03-15T04:31:40.440Z,21.50
2019-03-15T04:36:46.720Z,23.85
2019-03-15T04:41:52.834Z,18.62
2019-03-15T04:46:59.004Z,23.07
2019-03-15T04:52:05.177Z,22.40
2019-03-15T04:57:11.238Z,23.77
2019-03-15T05:02:17.443Z,20.32
2019-03-15T05:07:23.807Z,20.55
2019-03-15T05:12:29.949Z,25.68
2019-03-15T05:17:36.210Z,16.07
2019-03-15T05:22:42.437Z,19.40
2019-03-15T05:27:48.722Z,23.60
2019-03-15T05:32:54.944Z,19.37
2019-03-15T05:38:01.217Z,29.60
2019-03-15T05:43:07.300Z,29.42
2019-03-15T05:48:13.485Z,30.92
2019-03-15T05:53:19.886Z,20.75
2019-03-15T05:58:25.953Z,30.68
2019-03-15T06:03:32.195Z,26.93
2019-03-15T06:08:38.503Z,17.77
2019-03-15T06:13:44.652Z,18.48
2019-03-15T06:18:50.865Z,17.98
2019-03-15T06:23:57.179Z,22.70
2019-03-15T06:29:03.459Z,17.87
2019-03-15T06:34:09.627Z,21.10
2019-03-15T06:39:16.138Z,26.37
2019-03-15T06:44:22.198Z,26.95
2019-03-15T06:49:28.483Z,23.57
2019-03-15T06:54:34.550Z,14.75
2019-03-15T06:59:40.702Z,25.45
2019-03-15T07:04:46.772Z,15.03
2019-03-15T07:09:52.632Z,14.58
2019-03-15T07:14:58.793Z,24.60
2019-03-15T07:20:05.365Z,34.25
2019-03-15T07:25:11.965Z,26.27
2019-03-15T07:30:18.100Z,30.50
2019-03-15T07:35:24.577Z,22.15
2019-03-15T07:40:30.693Z,24.77
2019-03-15T07:45:36.776Z,26.10
2019-03-15T07:50:43.072Z,25.45
2019-03-15T07:55:49.321Z,41.10
2019-03-15T08:00:55.414Z,21.70
2019-03-15T08:06:01.610Z,29.27
2019-03-15T08:11:07.688Z,25.05
2019-03-15T08:16:13.735Z,21.30
2019-03-15T08:21:22.600Z,25.70
2019-03-15T08:26:30.193Z,38.70
2019-03-15T08:31:35.673Z,22.85
2019-03-15T08:36:41.980Z,27.62
2019-03-15T08:41:48.294Z,19.35
2019-03-15T08:46:54.474Z,20.43
2019-03-15T08:52:03.941Z,12.80
2019-03-15T08:57:08.608Z,25.50
2019-03-15T09:02:14.758Z,22.32
2019-03-15T09:07:24.722Z,18.80
2019-03-15T09:12:30.775Z,21.60
2019-03-15T09:17:36.988Z,17.20
2019-03-15T09:22:43.197Z,19.48
2019-03-15T09:27:49.616Z,10.08
2019-03-15T09:32:55.722Z,17.65
2019-03-15T09:38:01.792Z,23.73
2019-03-15T09:43:08.061Z,16.55
2019-03-15T09:48:14.112Z,9.55
2019-03-15T09:53:20.293Z,10.43
2019-03-15T09:58:26.564Z,8.75
2019-03-15T10:03:32.751Z,6.37
2019-03-15T10:08:39.130Z,5.17
2019-03-15T10:13:45.132Z,7.17
2019-03-15T10:18:51.411Z,5.62
2019-03-15T10:23:57.526Z,8.83
2019-03-15T10:29:14.562Z,14.45
2019-03-15T10:34:11.397Z,14.63
2019-03-15T10:39:17.749Z,11.45
2019-03-15T10:44:23.900Z,12.55
2019-03-15T10:49:30.951Z,9.25
2019-03-15T10:54:37.461Z,10.35
2019-03-15T10:59:43.709Z,13.35
2019-03-15T11:04:49.778Z,11.88
2019-03-15T11:09:55.659Z,12.55
2019-03-15T11:15:01.738Z,11.88
2019-03-15T11:20:08.911Z,7.70
2019-03-15T11:25:15.285Z,10.03
2019-03-15T11:30:21.628Z,15.63
2019-03-15T11:35:27.812Z,8.88
2019-03-15T11:40:34.118Z,10.08
2019-03-15T11:45:40.424Z,9.05
2019-03-15T11:50:46.639Z,11.22
2019-03-15T11:55:52.965Z,13.00
2019-03-15T12:00:59.275Z,5.35
2019-03-15T12:06:05.499Z,9.60
2019-03-15T12:11:11.484Z,6.50
2019-03-15T12:16:17.528Z,5.45
2019-03-15T12:21:23.682Z,10.55
2019-03-15T12:26:39.698Z,9.00
2019-03-15T12:31:37.789Z,9.60
2019-03-15T12:36:43.870Z,10.15
2019-03-15T12:41:50.246Z,9.18
2019-03-15T12:46:56.238Z,12.55
2019-03-15T12:52:02.477Z,11.65
2019-03-15T12:57:08.766Z,12.68
2019-03-15T13:02:15.009Z,11.73
2019-03-15T13:07:21.177Z,11.45
2019-03-15T13:12:29.024Z,8.95
2019-03-15T13:17:36.773Z,10.45
2019-03-15T13:22:44.681Z,14.83
2019-03-15T13:27:51.978Z,15.08
2019-03-15T13:32:59.423Z,18.20
2019-03-15T13:38:06.459Z,13.68
2019-03-15T13:43:14.027Z,12.37
2019-03-15T13:48:21.134Z,10.70
2019-03-15T13:53:28.288Z,11.70
2019-03-15T13:58:35.324Z,9.38
2019-03-15T14:03:42.782Z,7.62
2019-03-15T14:08:48.958Z,11.08
2019-03-15T14:13:55.021Z,14.50
2019-03-15T14:19:01.006Z,10.30
2019-03-15T14:24:07.142Z,11.55
2019-03-15T14:29:13.088Z,12.82
2019-03-15T14:34:19.301Z,13.35
2019-03-15T14:39:25.828Z,10.70
2019-03-15T14:44:32.187Z,14.53
2019-03-15T14:49:38.424Z,9.80
2019-03-15T14:54:44.743Z,11.20
2019-03-15T14:59:50.958Z,16.82
2019-03-15T15:04:56.994Z,10.03
2019-03-15T15:10:03.399Z,11.38
2019-03-15T15:15:11.263Z,15.98
2019-03-15T15:20:17.667Z,9.03
2019-03-15T15:25:23.754Z,14.75
2019-03-15T15:30:29.870Z,13.95
2019-03-15T15:35:36.514Z,12.75
2019-03-15T15:40:43.082Z,16.40
2019-03-15T15:45:49.139Z,10.78
2019-03-15T15:50:55.132Z,13.28
2019-03-15T15:56:01.423Z,17.15
2019-03-15T16:01:07.350Z,17.82
2019-03-15T16:06:13.397Z,16.10
2019-03-15T16:11:23.467Z,12.93
2019-03-15T16:16:29.745Z,13.05
2019-03-15T16:21:36.148Z,15.50
2019-03-15T16:26:42.426Z,11.50
2019-03-15T16:31:48.654Z,10.75
2019-03-15T16:36:54.622Z,11.63
2019-03-15T16:42:00.861Z,13.43
2019-03-15T16:47:07.064Z,17.42
2019-03-15T16:52:12.976Z,11.97
2019-03-15T16:57:18.962Z,14.68
2019-03-15T17:02:25.227Z,7.83
2019-03-15T17:07:31.555Z,14.18
2019-03-15T17:12:37.756Z,12.03
2019-03-15T17:17:44.134Z,13.90
2019-03-15T17:22:50.487Z,8.35
2019-03-15T17:27:56.624Z,12.73
2019-03-15T17:33:06.037Z,12.30
2019-03-15T17:38:10.607Z,8.78
2019-03-15T17:43:17.015Z,10.72
2019-03-15T17:48:23.177Z,14.60
2019-03-15T17:53:29.796Z,16.82
2019-03-15T17:58:36.048Z,14.55
2019-03-15T18:03:42.314Z,19.73
2019-03-15T18:08:48.672Z,21.65
2019-03-15T18:13:59.475Z,22.32
2019-03-15T18:19:05.849Z,21.68
2019-03-15T18:24:12.107Z,19.30
2019-03-15T18:29:26.390Z,18.12
2019-03-15T18:34:26.276Z,22.22
2019-03-15T18:39:32.705Z,19.40
2019-03-15T18:44:39.071Z,19.37
2019-03-15T18:49:45.211Z,18.07
2019-03-15T18:54:51.631Z,29.18
2019-03-15T18:59:57.932Z,31.42
2019-03-15T19:05:04.931Z,19.73
2019-03-15T19:10:11.809Z,27.82
2019-03-15T19:15:18.130Z,22.05
2019-03-15T19:20:24.528Z,19.80
2019-03-15T19:25:30.731Z,20.57
2019-03-15T19:30:38.008Z,16.20
2019-03-15T19:35:44.114Z,19.15
2019-03-15T19:40:50.331Z,23.18
2019-03-15T19:45:56.684Z,30.92
2019-03-15T19:51:02.762Z,27.75
2019-03-15T19:56:08.954Z,16.10
2019-03-15T20:01:15.201Z,14.40
2019-03-15T20:06:21.517Z,17.80
2019-03-15T20:11:27.866Z,15.88
2019-03-15T20:16:34.239Z,16.70
2019-03-15T20:21:40.748Z,16.67
2019-03-15T20:26:47.674Z,18.17
2019-03-15T20:31:54.019Z,16.23
2019-03-15T20:37:00.208Z,18.42
2019-03-15T20:42:06.484Z,20.55
2019-03-15T20:47:12.898Z,16.73
2019-03-15T20:52:19.054Z,20.80
2019-03-15T20:57:25.253Z,14.68
2019-03-15T21:02:31.491Z,19.12
2019-03-15T21:07:37.981Z,24.70
2019-03-15T21:12:44.436Z,19.15
2019-03-15T21:17:50.568Z,19.75
2019-03-15T21:22:56.634Z,22.07
2019-03-15T21:28:02.741Z,20.05
2019-03-15T21:33:08.891Z,20.88
2019-03-15T21:38:14.997Z,24.85
2019-03-15T21:43:21.200Z,20.27
2019-03-15T21:48:27.501Z,28.87
2019-03-15T21:53:33.819Z,25.80
2019-03-15T21:58:40.032Z,18.17
2019-03-15T22:03:46.008Z,15.98
2019-03-15T22:08:52.225Z,17.42
2019-03-15T22:13:58.761Z,27.62
2019-03-15T22:19:05.005Z,34.85
2019-03-15T22:24:10.952Z,29.00
2019-03-15T22:29:17.233Z,36.05
2019-03-15T22:34:23.818Z,25.25
2019-03-15T22:39:29.863Z,24.82
2019-03-15T22:44:36.043Z,24.60
2019-03-15T22:49:42.328Z,16.60
2019-03-15T22:54:48.490Z,17.70
2019-03-15T22:59:54.682Z,19.32
2019-03-15T23:05:00.910Z,12.73
2019-03-15T23:10:07.395Z,11.45
2019-03-15T23:15:14.131Z,12.98
2019-03-15T23:20:20.587Z,10.88
2019-03-15T23:25:26.926Z,8.50
2019-03-15T23:30:33.033Z,8.85
2019-03-15T23:35:52.967Z,22.07
2019-03-15T23:40:47.045Z,6.25
2019-03-15T23:45:53.215Z,11.28
2019-03-15T23:50:59.200Z,8.58
2019-03-15T23:56:05.475Z,9.60
